Time;durP1;ratioP1;P1;durP2;ratioP2;P2;SDS_P1;SDS_P2;PMS_P1;PMS_P2;Temp;Humidity;BMP_temperature;BMP_pressure;BME280_temperature;BME280_humidity;BME280_pressure;Samples;Min_cycle;Max_cycle;Signal;HPM_P1;HPM_P2
2023/06/06 00:00:19;;;;;;;16.50;15.00;;;;;;;16.57;nan;99382.44;5072281;28;20188;-77
2023/06/06 00:02:46;;;;;;;15.20;14.00;;;;;;;16.57;nan;99383.25;5059972;28;20201;-78
2023/06/06 00:05:14;;;;;;;16.80;15.40;;;;;;;16.57;nan;99385.97;5069124;28;20200;-78
2023/06/06 00:07:45;;;;;;;16.70;15.20;;;;;;;16.53;nan;99378.63;5064051;28;20185;-77
2023/06/06 00:10:14;;;;;;;15.73;14.43;;;;;;;16.54;nan;99385.69;5040538;28;20204;-77
2023/06/06 00:12:43;;;;;;;16.67;15.20;;;;;;;16.52;nan;99382.41;5062059;28;20218;-78
2023/06/06 00:15:12;;;;;;;17.60;16.10;;;;;;;16.52;nan;99382.41;5070283;28;20291;-78
2023/06/06 00:17:41;;;;;;;16.77;15.47;;;;;;;16.54;nan;99375.69;5068620;28;20243;-78
2023/06/06 00:20:09;;;;;;;18.00;16.57;;;;;;;16.53;nan;99382.16;5047447;28;20188;-78
2023/06/06 00:22:36;;;;;;;18.10;16.60;;;;;;;16.46;nan;99376.19;5059179;28;20189;-79
2023/06/06 00:25:04;;;;;;;18.63;17.03;;;;;;;16.48;nan;99379.44;5057636;28;20192;-78
2023/06/06 00:27:34;;;;;;;19.17;17.57;;;;;;;16.51;nan;99375.41;5061079;28;20194;-78
2023/06/06 00:30:03;;;;;;;18.77;17.17;;;;;;;16.45;nan;99371.03;5050266;28;20193;-78
2023/06/06 00:32:30;;;;;;;19.70;17.97;;;;;;;16.46;nan;99365.38;5063909;28;20252;-79
2023/06/06 00:34:58;;;;;;;19.63;17.93;;;;;;;16.43;nan;99375.88;5048900;28;20190;-78
2023/06/06 00:37:25;;;;;;;20.53;18.73;;;;;;;16.35;nan;99366.41;5052943;28;20605;-79
2023/06/06 00:39:51;;;;;;;19.37;17.73;;;;;;;16.37;nan;99368.84;5064121;28;20189;-77
2023/06/06 00:42:18;;;;;;;20.10;18.40;;;;;;;16.40;nan;99369.13;5055473;28;20186;-78
2023/06/06 00:44:46;;;;;;;20.53;18.73;;;;;;;16.39;nan;99363.97;5055299;28;20731;-78
2023/06/06 00:47:13;;;;;;;20.83;19.03;;;;;;;16.41;nan;99364.53;5070775;28;20225;-78
2023/06/06 00:49:41;;;;;;;19.87;18.23;;;;;;;16.41;nan;99351.00;5064490;28;20666;-78
2023/06/06 00:52:08;;;;;;;20.77;18.97;;;;;;;16.32;nan;99358.81;5051199;28;20186;-78
2023/06/06 00:54:35;;;;;;;20.47;18.63;;;;;;;16.36;nan;99346.41;5053975;28;20783;-79
2023/06/06 00:57:03;;;;;;;20.23;18.53;;;;;;;16.37;nan;99348.03;5060518;28;20242;-78
2023/06/06 00:59:30;;;;;;;20.50;18.63;;;;;;;16.38;nan;99343.44;5057111;28;20181;-78
2023/06/06 01:01:58;;;;;;;19.57;17.90;;;;;;;16.38;nan;99349.63;5057202;28;20192;-79
2023/06/06 01:04:26;;;;;;;19.47;17.80;;;;;;;16.42;nan;99350.75;5056812;28;20197;-79
2023/06/06 01:06:53;;;;;;;18.43;16.83;;;;;;;16.36;nan;99348.28;5052315;28;20297;-79
2023/06/06 01:09:20;;;;;;;19.50;17.70;;;;;;;16.38;nan;99346.94;5055275;28;20735;-79
2023/06/06 01:11:52;;;;;;;19.67;17.97;;;;;;;16.37;nan;99352.63;5062233;28;20190;-78
2023/06/06 01:14:48;;;;;;;18.20;16.60;;;;;;;16.38;nan;99349.63;5053881;28;20181;-78
2023/06/06 01:17:17;;;;;;;20.00;18.20;;;;;;;16.41;nan;99349.13;5040001;28;20232;-78
2023/06/06 01:19:48;;;;;;;18.63;17.03;;;;;;;16.30;nan;99356.38;5059312;28;20198;-79
2023/06/06 01:22:17;;;;;;;18.13;16.53;;;;;;;16.27;nan;99342.56;5061897;28;20589;-79
2023/06/06 01:24:46;;;;;;;18.50;16.83;;;;;;;16.29;nan;99343.94;5056104;28;20243;-79
2023/06/06 01:27:13;;;;;;;18.20;16.60;;;;;;;16.26;nan;99344.47;5052401;28;20194;-78
2023/06/06 01:29:40;;;;;;;17.77;16.27;;;;;;;16.30;nan;99350.97;5065432;28;20257;-78
2023/06/06 01:32:23;;;;;;;17.50;16.00;;;;;;;16.25;nan;99334.72;5068493;28;20197;-79
2023/06/06 01:35:11;;;;;;;17.13;15.63;;;;;;;16.25;nan;99339.31;5063249;28;20208;-79
2023/06/06 01:37:45;;;;;;;16.77;15.30;;;;;;;16.28;nan;99338.81;5069630;28;20593;-77
2023/06/06 01:40:13;;;;;;;17.17;15.33;;;;;;;16.30;nan;99333.94;5049631;28;20532;-78
2023/06/06 01:42:44;;;;;;;16.63;15.13;;;;;;;16.32;nan;99329.09;5057229;28;20678;-79
2023/06/06 01:45:15;;;;;;;17.00;15.43;;;;;;;16.26;nan;99325.53;5034188;28;20197;-78
2023/06/06 01:47:43;;;;;;;16.33;14.83;;;;;;;16.30;nan;99325.81;5022531;28;20228;-79
2023/06/06 01:50:10;;;;;;;16.13;14.73;;;;;;;16.29;nan;99332.28;5064192;28;20205;-78
2023/06/06 01:52:37;;;;;;;17.40;15.70;;;;;;;16.28;nan;99319.88;5061049;28;20281;-78
2023/06/06 01:55:08;;;;;;;16.87;15.47;;;;;;;16.27;nan;99332.59;5062248;28;20186;-78
2023/06/06 01:57:36;;;;;;;17.47;15.87;;;;;;;16.34;nan;99326.09;5068794;28;20194;-79
2023/06/06 02:00:07;;;;;;;15.87;14.47;;;;;;;16.30;nan;99323.94;5073240;28;20189;-78
2023/06/06 02:02:40;;;;;;;17.60;16.10;;;;;;;16.26;nan;99328.25;5057522;28;20573;-78
2023/06/06 02:05:07;;;;;;;17.53;16.13;;;;;;;16.38;nan;99328.00;5055591;28;20194;-78
2023/06/06 02:07:35;;;;;;;17.67;16.07;;;;;;;16.32;nan;99320.16;5067319;28;20708;-78
2023/06/06 02:10:04;;;;;;;17.13;15.73;;;;;;;16.27;nan;99327.19;5067060;28;20233;-77
2023/06/06 02:12:31;;;;;;;17.23;15.73;;;;;;;16.28;nan;99336.88;5068847;28;20261;-78
2023/06/06 02:14:59;;;;;;;16.77;15.30;;;;;;;16.25;nan;99325.78;5070297;28;20640;-78
2023/06/06 02:17:26;;;;;;;16.87;15.50;;;;;;;16.17;nan;99323.59;5069382;28;20209;-77
2023/06/06 02:19:53;;;;;;;17.03;15.53;;;;;;;16.26;nan;99330.13;5063164;28;20201;-78
2023/06/06 02:22:20;;;;;;;17.37;15.83;;;;;;;16.26;nan;99324.72;5062101;28;20194;-77
2023/06/06 02:24:49;;;;;;;17.97;16.37;;;;;;;16.24;nan;99327.69;5064774;28;20235;-79
2023/06/06 02:27:16;;;;;;;17.27;15.77;;;;;;;16.27;nan;99323.66;5062197;28;20193;-78
2023/06/06 02:29:43;;;;;;;17.03;15.63;;;;;;;16.29;nan;99335.00;5064801;28;20332;-78
2023/06/06 02:32:11;;;;;;;16.67;15.27;;;;;;;16.33;nan;99330.69;5059264;28;20732;-80
2023/06/06 02:34:38;;;;;;;16.73;15.33;;;;;;;16.28;nan;99328.78;5062388;28;20666;-78
2023/06/06 02:37:08;;;;;;;17.13;15.73;;;;;;;16.36;nan;99332.06;5064441;28;20664;-78
2023/06/06 02:39:35;;;;;;;18.17;16.63;;;;;;;16.23;nan;99336.06;5054597;28;20197;-79
2023/06/06 02:42:03;;;;;;;18.17;16.63;;;;;;;16.06;nan;99332.72;5067999;28;20189;-78
2023/06/06 02:44:30;;;;;;;17.87;16.33;;;;;;;16.18;nan;99333.34;5056419;28;20622;-78
2023/06/06 02:46:57;;;;;;;17.87;16.30;;;;;;;16.09;nan;99326.81;5065259;28;20217;-78
2023/06/06 02:49:27;;;;;;;18.20;16.50;;;;;;;16.19;nan;99333.06;5068593;28;20266;-78
2023/06/06 02:51:55;;;;;;;19.17;17.43;;;;;;;16.26;nan;99324.72;5069687;28;20288;-78
2023/06/06 02:54:22;;;;;;;18.90;17.10;;;;;;;15.84;nan;99322.88;5059662;28;20194;-78
2023/06/06 02:56:49;;;;;;;18.50;16.80;;;;;;;15.88;nan;99323.19;5062415;28;20576;-78
2023/06/06 02:59:17;;;;;;;17.97;16.33;;;;;;;15.91;nan;99327.25;5064837;28;20692;-77
2023/06/06 03:01:44;;;;;;;17.53;16.03;;;;;;;16.14;nan;99324.94;5060157;28;20547;-78
2023/06/06 03:04:12;;;;;;;19.00;17.30;;;;;;;15.96;nan;99330.00;5040622;28;20201;-78
2023/06/06 03:06:42;;;;;;;18.77;17.07;;;;;;;15.98;nan;99328.66;5067814;28;20679;-77
2023/06/06 03:09:09;;;;;;;18.63;16.83;;;;;;;15.91;nan;99329.97;5064477;28;20327;-78
2023/06/06 03:11:38;;;;;;;18.70;17.03;;;;;;;15.69;nan;99328.19;5054635;28;20197;-80
2023/06/06 03:14:05;;;;;;;18.73;17.03;;;;;;;15.68;nan;99328.44;5065853;28;20196;-78
2023/06/06 03:16:35;;;;;;;18.53;16.87;;;;;;;15.97;nan;99335.13;5055236;28;20308;-78
2023/06/06 03:19:03;;;;;;;18.40;16.90;;;;;;;15.78;nan;99331.22;5060673;28;20673;-78
2023/06/06 03:21:33;;;;;;;18.60;16.97;;;;;;;15.80;nan;99334.47;5062270;28;20197;-80
2023/06/06 03:24:00;;;;;;;18.33;16.67;;;;;;;16.07;nan;99337.06;5061820;28;20200;-78
2023/06/06 03:26:28;;;;;;;19.90;18.20;;;;;;;16.23;nan;99334.19;5060576;28;20200;-78
2023/06/06 03:28:59;;;;;;;19.27;17.57;;;;;;;16.29;nan;99319.59;5047881;28;20209;-78
2023/06/06 03:31:29;;;;;;;19.03;17.23;;;;;;;16.26;nan;99327.44;5048359;28;20224;-77
2023/06/06 03:33:56;;;;;;;19.37;17.57;;;;;;;16.20;nan;99326.59;5070559;28;20551;-79
2023/06/06 03:36:26;;;;;;;17.47;15.97;;;;;;;16.35;nan;99328.53;5064001;28;20237;-78
2023/06/06 03:38:54;;;;;;;18.03;16.60;;;;;;;16.48;nan;99330.75;5060624;28;20574;-79
2023/06/06 03:41:21;;;;;;;18.53;16.93;;;;;;;16.52;nan;99331.84;5060636;28;20190;-80
2023/06/06 03:43:49;;;;;;;18.50;16.90;;;;;;;16.63;nan;99320.03;5054277;28;20567;-78
2023/06/06 03:46:16;;;;;;;18.93;17.10;;;;;;;16.75;nan;99322.47;5069379;28;20220;-78
2023/06/06 03:48:43;;;;;;;19.03;17.37;;;;;;;16.84;nan;99320.09;5069152;28;20566;-80
2023/06/06 03:51:10;;;;;;;18.70;17.07;;;;;;;16.95;nan;99322.53;5057229;28;20194;-78
2023/06/06 03:53:37;;;;;;;17.90;16.40;;;;;;;17.12;nan;99320.38;5064205;28;20335;-78
2023/06/06 03:56:04;;;;;;;17.90;16.30;;;;;;;17.30;nan;99318.22;5062945;28;20201;-77
2023/06/06 03:58:31;;;;;;;17.70;16.20;;;;;;;17.45;nan;99315.53;5069843;28;20280;-77
2023/06/06 04:00:58;;;;;;;17.70;16.20;;;;;;;17.55;nan;99319.03;5056655;28;20193;-77
2023/06/06 04:03:36;;;;;;;18.30;16.70;;;;;;;17.58;nan;99318.53;5064173;28;20231;-78
2023/06/06 04:06:08;;;;;;;16.60;15.10;;;;;;;17.64;nan;99318.53;5057152;28;20196;-78
2023/06/06 04:08:37;;;;;;;17.30;15.80;;;;;;;17.77;nan;99312.53;5060450;28;20238;-77
2023/06/06 04:11:04;;;;;;;16.67;15.33;;;;;;;17.91;nan;99319.81;5071452;28;20193;-78
2023/06/06 04:13:31;;;;;;;16.97;15.37;;;;;;;18.34;nan;99320.19;5072440;28;20336;-78
2023/06/06 04:15:57;;;;;;;16.20;14.70;;;;;;;18.60;nan;99318.22;5071023;28;20213;-78
2023/06/06 04:18:25;;;;;;;15.50;14.20;;;;;;;19.12;nan;99318.47;5071308;28;20211;-79
2023/06/06 04:20:52;;;;;;;15.77;14.37;;;;;;;19.47;nan;99311.94;5056542;28;20242;-78
2023/06/06 04:23:20;;;;;;;14.87;13.57;;;;;;;19.75;nan;99313.84;5053698;28;20200;-78
2023/06/06 04:25:48;;;;;;;14.87;13.57;;;;;;;20.13;nan;99308.56;5038504;28;20202;-78
2023/06/06 04:28:18;;;;;;;13.50;12.40;;;;;;;20.34;nan;99311.88;5054880;28;20196;-77
2023/06/06 04:30:47;;;;;;;14.70;13.40;;;;;;;20.01;nan;99306.25;5055048;28;20205;-79
2023/06/06 04:33:15;;;;;;;14.40;13.10;;;;;;;20.06;nan;99311.59;5047118;28;20214;-78
2023/06/06 04:35:42;;;;;;;15.33;13.97;;;;;;;19.64;nan;99311.53;5056837;28;20228;-78
2023/06/06 04:38:10;;;;;;;14.23;13.03;;;;;;;19.52;nan;99311.09;5057610;28;20228;-77
2023/06/06 04:40:40;;;;;;;14.70;13.37;;;;;;;19.48;nan;99308.13;5058778;28;20194;-78
2023/06/06 04:43:27;;;;;;;15.70;14.27;;;;;;;19.06;nan;99305.19;5070839;28;20701;-77
2023/06/06 04:46:00;;;;;;;16.63;15.13;;;;;;;18.98;nan;99305.78;5070758;28;20666;-78
2023/06/06 04:48:28;;;;;;;15.87;14.47;;;;;;;19.26;nan;99310.47;5070847;28;20302;-78
2023/06/06 04:50:56;;;;;;;15.57;14.00;;;;;;;19.36;nan;99308.47;5072059;28;20185;-79
2023/06/06 04:53:25;;;;;;;15.33;13.93;;;;;;;19.59;nan;99306.97;5063783;28;20196;-78
2023/06/06 04:55:54;;;;;;;14.90;13.50;;;;;;;19.73;nan;99304.38;5059346;28;20199;-82
2023/06/06 04:58:21;;;;;;;14.53;13.10;;;;;;;19.89;nan;99315.88;5072230;28;20185;-82
2023/06/06 05:00:49;;;;;;;13.63;12.53;;;;;;;19.92;nan;99304.44;5070099;28;20204;-80
2023/06/06 05:03:18;;;;;;;13.97;12.77;;;;;;;19.73;nan;99309.81;5055179;28;20195;-80
2023/06/06 05:05:49;;;;;;;14.43;13.03;;;;;;;20.07;nan;99318.66;5062389;28;20243;-79
2023/06/06 05:08:16;;;;;;;13.07;11.97;;;;;;;20.01;nan;99319.03;5048948;28;20246;-79
2023/06/06 05:10:43;;;;;;;13.77;12.47;;;;;;;20.03;nan;99312.19;5053016;28;20192;-79
2023/06/06 05:13:10;;;;;;;13.30;12.10;;;;;;;20.55;nan;99324.13;5066799;28;20188;-79
2023/06/06 05:15:37;;;;;;;13.17;12.07;;;;;;;21.06;nan;99318.75;5059894;28;20192;-79
2023/06/06 05:18:03;;;;;;;13.10;12.00;;;;;;;21.22;nan;99316.66;5060587;28;20205;-79
2023/06/06 05:20:30;;;;;;;13.43;12.33;;;;;;;21.43;nan;99317.94;5057894;28;20659;-79
2023/06/06 05:22:57;;;;;;;13.00;11.73;;;;;;;21.52;nan;99319.69;5060289;28;20193;-79
2023/06/06 05:25:24;;;;;;;12.60;11.50;;;;;;;21.52;nan;99319.69;5057078;28;20183;-80
2023/06/06 05:27:51;;;;;;;11.93;10.73;;;;;;;21.28;nan;99326.34;5058793;28;20191;-81
2023/06/06 05:30:18;;;;;;;11.40;10.40;;;;;;;21.19;nan;99317.22;5051888;28;20182;-80
2023/06/06 05:32:45;;;;;;;12.27;11.27;;;;;;;20.73;nan;99317.06;5049458;28;20195;-80
2023/06/06 05:35:12;;;;;;;12.20;11.10;;;;;;;20.72;nan;99318.97;5051726;28;20189;-80
2023/06/06 05:37:41;;;;;;;12.37;11.37;;;;;;;20.31;nan;99315.16;5051927;28;20216;-80
2023/06/06 05:40:09;;;;;;;11.70;10.67;;;;;;;20.54;nan;99308.88;5054564;28;20194;-80
2023/06/06 05:42:36;;;;;;;12.13;11.13;;;;;;;20.67;nan;99312.81;5050752;28;20684;-80
2023/06/06 05:45:03;;;;;;;12.50;11.30;;;;;;;20.67;nan;99319.03;5059936;28;20203;-81
2023/06/06 05:47:30;;;;;;;12.70;11.60;;;;;;;20.78;nan;99315.09;5051986;28;20216;-80
2023/06/06 05:49:57;;;;;;;12.33;11.33;;;;;;;20.97;nan;99310.47;5044598;28;20669;-83
2023/06/06 05:52:24;;;;;;;12.43;11.43;;;;;;;20.88;nan;99314.13;5055647;28;20245;-80
2023/06/06 05:55:02;;;;;;;13.60;12.43;;;;;;;20.82;nan;99323.47;5050952;28;20180;-80
2023/06/06 05:57:29;;;;;;;12.10;10.90;;;;;;;20.37;nan;99323.00;5054884;28;20202;-80
2023/06/06 06:00:00;;;;;;;12.43;11.33;;;;;;;20.52;nan;99313.81;5056219;28;20265;-80
2023/06/06 06:02:38;;;;;;;13.30;12.10;;;;;;;20.19;nan;99319.09;5047835;28;20223;-80
2023/06/06 06:05:05;;;;;;;14.27;13.07;;;;;;;20.54;nan;99330.66;5062656;28;20197;-80
2023/06/06 06:07:33;;;;;;;13.10;11.97;;;;;;;21.17;nan;99325.72;5059350;28;20192;-80
2023/06/06 06:10:00;;;;;;;12.63;11.63;;;;;;;21.32;nan;99333.63;5062892;28;20196;-80
2023/06/06 06:12:26;;;;;;;14.00;12.67;;;;;;;21.77;nan;99331.25;5065691;28;20188;-80
2023/06/06 06:14:53;;;;;;;13.13;11.93;;;;;;;22.21;nan;99326.06;5065562;28;20675;-81
2023/06/06 06:17:22;;;;;;;13.35;12.05;;;;;;;22.79;nan;99326.25;5068579;28;20213;-80
2023/06/06 06:19:49;;;;;;;12.35;11.15;;;;;;;23.69;nan;99329.88;5060924;28;20200;-80
2023/06/06 06:22:16;;;;;;;12.55;11.55;;;;;;;23.10;nan;99328.28;5059693;28;20200;-80
2023/06/06 06:24:42;;;;;;;12.07;11.07;;;;;;;23.45;nan;99332.94;5068466;28;20655;-80
2023/06/06 06:27:09;;;;;;;11.95;11.00;;;;;;;23.62;nan;99332.22;5068983;28;20186;-80
2023/06/06 06:29:36;;;;;;;11.52;10.63;;;;;;;23.83;nan;99336.06;5071702;28;20189;-80
2023/06/06 06:32:03;;;;;;;12.38;11.27;;;;;;;23.73;nan;99328.13;5054968;28;20673;-81
2023/06/06 06:34:30;;;;;;;11.38;10.48;;;;;;;23.90;nan;99327.38;5061241;28;20185;-81
2023/06/06 06:36:57;;;;;;;10.93;9.98;;;;;;;23.29;nan;99339.84;5061262;28;20239;-80
2023/06/06 06:39:24;;;;;;;10.85;9.95;;;;;;;23.22;nan;99343.03;5056587;28;20254;-80
2023/06/06 06:41:52;;;;;;;10.93;9.93;;;;;;;22.91;nan;99346.78;5053541;28;20682;-80
2023/06/06 06:44:19;;;;;;;10.82;9.95;;;;;;;23.12;nan;99343.25;5061203;28;20185;-80
2023/06/06 06:46:46;;;;;;;10.55;9.75;;;;;;;23.22;nan;99343.03;5054717;28;20575;-80
2023/06/06 06:49:15;;;;;;;11.75;10.65;;;;;;;23.01;nan;99347.31;5057812;28;20193;-81
2023/06/06 06:51:43;;;;;;;12.07;11.13;;;;;;;22.81;nan;99348.63;5059640;28;20193;-80
2023/06/06 06:54:13;;;;;;;11.48;10.57;;;;;;;22.92;nan;99349.16;5050294;28;20189;-80
2023/06/06 06:56:43;;;;;;;11.98;11.10;;;;;;;22.78;nan;99349.19;5048718;28;20216;-80
2023/06/06 06:59:10;;;;;;;12.13;11.23;;;;;;;22.57;nan;99353.47;5055143;28;20192;-80
2023/06/06 07:01:38;;;;;;;11.55;10.55;;;;;;;22.29;nan;99352.66;5063941;28;20185;-80
2023/06/06 07:04:05;;;;;;;11.35;10.43;;;;;;;22.14;nan;99349.41;5059875;28;20201;-81
2023/06/06 07:06:36;;;;;;;10.77;9.77;;;;;;;22.49;nan;99347.91;5055474;28;20210;-80
2023/06/06 07:09:05;;;;;;;10.55;9.75;;;;;;;22.90;nan;99351.41;5058907;28;20219;-80
2023/06/06 07:11:32;;;;;;;11.48;10.52;;;;;;;23.16;nan;99349.72;5066275;28;20193;-80
2023/06/06 07:13:59;;;;;;;10.98;10.07;;;;;;;23.26;nan;99345.94;5066697;28;20195;-80
2023/06/06 07:16:26;;;;;;;10.80;9.85;;;;;;;23.39;nan;99349.72;5061241;28;20191;-80
2023/06/06 07:18:53;;;;;;;11.18;10.20;;;;;;;23.77;nan;99345.50;5064065;28;20599;-81
2023/06/06 07:21:21;;;;;;;11.70;10.60;;;;;;;23.92;nan;99349.78;5059327;28;20185;-80
2023/06/06 07:23:48;;;;;;;11.48;10.48;;;;;;;24.00;nan;99340.81;5063551;28;20197;-81
2023/06/06 07:26:22;;;;;;;11.65;10.70;;;;;;;24.31;nan;99335.34;5059735;28;20213;-82
2023/06/06 07:28:48;;;;;;;10.70;9.80;;;;;;;24.49;nan;99337.81;5061180;28;20193;-79
2023/06/06 07:31:16;;;;;;;11.57;10.57;;;;;;;24.84;nan;99340.59;5069085;28;20182;-78
2023/06/06 07:33:42;;;;;;;11.75;10.75;;;;;;;25.12;nan;99346.63;5054948;28;20200;-79
2023/06/06 07:36:09;;;;;;;11.32;10.43;;;;;;;25.29;nan;99341.16;5061402;28;20185;-78
2023/06/06 07:38:36;;;;;;;10.55;9.73;;;;;;;25.07;nan;99338.56;5057660;28;20256;-79
2023/06/06 07:41:03;;;;;;;11.90;10.90;;;;;;;24.89;nan;99345.97;5060524;28;20192;-79
2023/06/06 07:43:31;;;;;;;11.90;10.95;;;;;;;24.38;nan;99338.41;5056160;28;20276;-79
2023/06/06 07:45:57;;;;;;;11.85;10.85;;;;;;;25.11;nan;99332.13;5062505;28;20187;-79
2023/06/06 07:48:24;;;;;;;12.20;11.20;;;;;;;25.54;nan;99334.84;5063594;28;20215;-78
2023/06/06 07:50:51;;;;;;;12.20;11.20;;;;;;;25.77;nan;99335.47;5050102;28;20297;-78
2023/06/06 07:53:18;;;;;;;11.32;10.35;;;;;;;26.29;nan;99341.59;5051066;28;20197;-78
2023/06/06 07:55:45;;;;;;;13.25;12.05;;;;;;;26.38;nan;99338.81;5045559;28;20582;-79
2023/06/06 07:58:12;;;;;;;11.77;10.85;;;;;;;26.82;nan;99338.25;5053198;28;20216;-79
2023/06/06 08:00:42;;;;;;;12.00;10.90;;;;;;;27.04;nan;99335.19;5057902;28;20182;-79
2023/06/06 08:03:11;;;;;;;11.23;10.43;;;;;;;27.27;nan;99332.09;5053788;28;20196;-78
2023/06/06 08:05:38;;;;;;;10.52;9.68;;;;;;;27.23;nan;99333.91;5053339;28;20274;-80
2023/06/06 08:08:06;;;;;;;10.57;9.73;;;;;;;27.26;nan;99338.72;5058737;28;20221;-79
2023/06/06 08:10:33;;;;;;;11.30;10.40;;;;;;;27.15;nan;99328.16;5063191;28;20189;-79
2023/06/06 08:13:00;;;;;;;10.98;10.02;;;;;;;27.31;nan;99322.03;5061914;28;20199;-81
2023/06/06 08:15:27;;;;;;;12.00;11.05;;;;;;;26.46;nan;99330.53;5046161;28;20177;-78
2023/06/06 08:17:54;;;;;;;10.93;10.13;;;;;;;27.31;nan;99322.81;5061742;28;20284;-80
2023/06/06 08:20:21;;;;;;;10.27;9.48;;;;;;;27.12;nan;99325.25;5056632;28;20181;-79
2023/06/06 08:22:49;;;;;;;10.40;9.55;;;;;;;27.51;nan;99332.22;5060137;28;20177;-80
2023/06/06 08:25:16;;;;;;;13.05;11.85;;;;;;;26.16;nan;99332.44;5055468;28;20211;-80
2023/06/06 08:27:43;;;;;;;11.57;10.77;;;;;;;25.88;nan;99323.00;5058418;28;20649;-80
2023/06/06 08:30:10;;;;;;;11.98;11.07;;;;;;;26.20;nan;99329.81;5057897;28;20190;-81
2023/06/06 08:32:37;;;;;;;12.15;11.25;;;;;;;25.78;nan;99326.91;5048604;28;20624;-80
2023/06/06 08:35:05;;;;;;;12.95;11.75;;;;;;;24.65;nan;99324.47;5056161;28;20197;-80
2023/06/06 08:37:32;;;;;;;12.20;11.30;;;;;;;24.56;nan;99323.66;5060441;28;20206;-80
2023/06/06 08:39:59;;;;;;;12.20;11.20;;;;;;;24.88;nan;99328.72;5045350;28;20201;-80
2023/06/06 08:42:26;;;;;;;13.13;11.88;;;;;;;25.21;nan;99336.47;5052020;28;20556;-80
2023/06/06 08:44:55;;;;;;;13.05;12.05;;;;;;;25.57;nan;99336.16;5053376;28;20185;-80
2023/06/06 08:47:23;;;;;;;11.85;10.85;;;;;;;26.19;nan;99328.22;5042686;28;20209;-80
2023/06/06 08:49:51;;;;;;;12.93;11.73;;;;;;;26.53;nan;99324.53;5052875;28;20185;-81
2023/06/06 08:52:20;;;;;;;11.85;10.90;;;;;;;25.83;nan;99326.72;5048534;28;20551;-80
2023/06/06 08:54:47;;;;;;;13.70;12.70;;;;;;;24.87;nan;99329.06;5054164;28;20192;-80
2023/06/06 08:57:15;;;;;;;12.63;11.60;;;;;;;25.55;nan;99327.44;5055240;28;20198;-80
2023/06/06 08:59:41;;;;;;;13.68;12.57;;;;;;;25.73;nan;99332.56;5051090;28;20193;-81
2023/06/06 09:02:08;;;;;;;12.55;11.55;;;;;;;25.78;nan;99331.59;5059574;28;20194;-81
2023/06/06 09:04:35;;;;;;;11.02;10.07;;;;;;;26.35;nan;99334.00;5057220;28;20551;-80
2023/06/06 09:07:04;;;;;;;14.30;13.10;;;;;;;25.33;nan;99339.38;5052397;28;20587;-80
2023/06/06 09:09:33;;;;;;;14.07;12.88;;;;;;;25.67;nan;99327.56;5052104;28;21670;-81
2023/06/06 09:12:00;;;;;;;13.18;12.00;;;;;;;26.18;nan;99326.59;5062338;28;20188;-80
2023/06/06 09:14:26;;;;;;;11.95;10.95;;;;;;;26.84;nan;99322.19;5058144;28;20188;-80
2023/06/06 09:16:54;;;;;;;12.82;11.80;;;;;;;27.35;nan;99323.75;5052876;28;20189;-81
2023/06/06 09:19:27;;;;;;;14.75;13.55;;;;;;;26.11;nan;99324.38;5052204;28;20204;-80
2023/06/06 09:21:57;;;;;;;12.88;11.77;;;;;;;25.63;nan;99329.34;5059728;28;20186;-80
2023/06/06 09:24:25;;;;;;;14.38;13.07;;;;;;;26.08;nan;99326.97;5054634;28;20185;-80
2023/06/06 09:26:52;;;;;;;13.75;12.55;;;;;;;26.87;nan;99324.34;5053666;28;20181;-81
2023/06/06 09:29:18;;;;;;;12.35;11.35;;;;;;;27.69;nan;99313.59;5050383;28;20195;-80
2023/06/06 09:31:48;;;;;;;12.13;11.15;;;;;;;28.11;nan;99315.06;5045356;28;20194;-80
2023/06/06 09:34:15;;;;;;;11.80;10.77;;;;;;;27.16;nan;99320.69;5046280;28;20258;-80
2023/06/06 09:36:43;;;;;;;13.18;12.07;;;;;;;28.15;nan;99317.94;5043559;28;20198;-80
2023/06/06 09:39:14;;;;;;;13.30;12.30;;;;;;;28.36;nan;99313.94;5049165;28;20206;-79
2023/06/06 09:41:46;;;;;;;13.93;12.82;;;;;;;28.58;nan;99311.84;5039669;28;20194;-80
2023/06/06 09:44:18;;;;;;;13.02;12.00;;;;;;;28.76;nan;99307.72;5043247;28;20260;-80
2023/06/06 09:46:45;;;;;;;10.40;9.35;;;;;;;28.33;nan;99305.53;5049578;28;20210;-79
2023/06/06 09:49:15;;;;;;;11.77;10.80;;;;;;;29.01;nan;99303.75;5051273;28;20189;-80
2023/06/06 09:51:45;;;;;;;12.85;11.85;;;;;;;29.50;nan;99303.56;5051660;28;20196;-81
2023/06/06 09:54:11;;;;;;;12.55;11.55;;;;;;;29.77;nan;99295.25;5072533;28;20227;-80
2023/06/06 09:56:42;;;;;;;11.48;10.60;;;;;;;30.67;nan;99285.25;5069732;28;20201;-79
2023/06/06 09:59:10;;;;;;;12.73;11.63;;;;;;;29.09;nan;99282.69;5069402;28;20233;-79
2023/06/06 10:01:38;;;;;;;12.75;11.75;;;;;;;28.32;nan;99281.91;5063764;28;20185;-79
2023/06/06 10:04:05;;;;;;;15.77;14.40;;;;;;;27.15;nan;99284.16;5068065;28;20197;-79
2023/06/06 10:06:37;;;;;;;14.27;13.02;;;;;;;27.87;nan;99287.47;5068525;28;20656;-79
2023/06/06 10:09:05;;;;;;;15.07;13.77;;;;;;;27.19;nan;99289.78;5043229;28;20228;-79
2023/06/06 10:11:33;;;;;;;14.70;13.48;;;;;;;26.26;nan;99281.88;5069668;28;20185;-79
2023/06/06 10:13:59;;;;;;;13.80;12.80;;;;;;;24.89;nan;99300.19;5068912;28;20609;-79
2023/06/06 10:16:27;;;;;;;13.02;12.02;;;;;;;25.38;nan;99287.91;5074188;28;20203;-79
2023/06/06 10:19:14;;;;;;;11.40;10.52;;;;;;;25.34;nan;99289.69;5074346;28;20635;-79
2023/06/06 10:21:41;;;;;;;11.77;10.90;;;;;;;26.10;nan;99284.31;5071099;28;20515;-79
2023/06/06 10:24:08;;;;;;;12.35;11.25;;;;;;;27.16;nan;99294.00;5060228;28;20186;-79
2023/06/06 10:26:51;;;;;;;11.13;10.18;;;;;;;28.04;nan;99292.78;5066574;28;20204;-79
2023/06/06 10:29:23;;;;;;;12.10;11.10;;;;;;;27.99;nan;99296.56;5063956;28;20193;-80
2023/06/06 10:32:15;;;;;;;12.85;11.80;;;;;;;27.59;nan;99288.09;5059978;28;20220;-79
2023/06/06 10:34:47;;;;;;;11.85;11.00;;;;;;;27.82;nan;99293.19;5052266;28;20254;-79
2023/06/06 10:37:16;;;;;;;10.82;9.93;;;;;;;27.35;nan;99287.19;5068699;28;20717;-80
2023/06/06 10:39:47;;;;;;;12.80;11.70;;;;;;;26.35;nan;99285.38;5058048;28;20250;-79
2023/06/06 10:42:15;;;;;;;14.90;13.70;;;;;;;25.43;nan;99293.22;5070862;28;20664;-79
2023/06/06 10:44:45;;;;;;;13.57;12.43;;;;;;;26.28;nan;99285.88;5068960;28;20655;-79
2023/06/06 10:47:20;;;;;;;15.48;14.18;;;;;;;26.26;nan;99284.59;5067154;28;20219;-79
2023/06/06 10:50:12;;;;;;;14.82;13.40;;;;;;;26.09;nan;99287.38;5069397;28;20259;-80
2023/06/06 10:52:52;;;;;;;14.55;13.45;;;;;;;25.94;nan;99287.97;5073772;28;20342;-79
2023/06/06 10:55:24;;;;;;;14.73;13.45;;;;;;;26.11;nan;99283.19;5073457;28;20268;-79
2023/06/06 10:58:03;;;;;;;15.35;14.25;;;;;;;26.23;nan;99282.50;5061627;28;20748;-79
2023/06/06 11:00:42;;;;;;;14.85;13.48;;;;;;;26.72;nan;99287.22;5060759;28;20205;-79
2023/06/06 11:03:13;;;;;;;14.70;13.30;;;;;;;26.71;nan;99290.28;5063104;28;20192;-80
2023/06/06 11:06:01;;;;;;;15.10;13.90;;;;;;;26.45;nan;99293.22;5065469;28;20230;-79
2023/06/06 11:08:56;;;;;;;15.63;14.13;;;;;;;26.04;nan;99291.13;5066560;28;20268;-79
2023/06/06 11:11:34;;;;;;;13.65;12.65;;;;;;;25.17;nan;99297.94;5077962;28;20681;-80
2023/06/06 11:14:07;;;;;;;13.30;12.30;;;;;;;24.86;nan;99291.78;5060716;28;20207;-79
2023/06/06 11:16:40;;;;;;;12.35;11.35;;;;;;;24.96;nan;99303.25;5068482;28;20689;-79
2023/06/06 11:19:09;;;;;;;12.63;11.52;;;;;;;25.50;nan;99300.16;5060303;28;20201;-79
2023/06/06 11:21:37;;;;;;;13.98;12.65;;;;;;;25.83;nan;99298.47;5059062;28;20189;-79
2023/06/06 11:24:05;;;;;;;13.32;12.23;;;;;;;25.85;nan;99299.75;5066610;28;20184;-79
2023/06/06 11:26:36;;;;;;;13.00;11.80;;;;;;;25.83;nan;99288.31;5058459;28;20183;-79
2023/06/06 11:29:04;;;;;;;12.20;11.20;;;;;;;25.74;nan;99293.03;5053243;28;20202;-79
2023/06/06 11:31:31;;;;;;;12.38;11.20;;;;;;;26.12;nan;99295.78;5061283;28;20242;-80
2023/06/06 11:34:14;;;;;;;12.48;11.48;;;;;;;26.06;nan;99293.53;5061642;28;20210;-79
2023/06/06 11:36:44;;;;;;;11.85;10.77;;;;;;;27.05;nan;99287.31;5065502;28;20386;-79
2023/06/06 11:39:12;;;;;;;12.95;11.77;;;;;;;26.56;nan;99296.38;5064383;28;20212;-80
2023/06/06 11:41:52;;;;;;;11.77;10.77;;;;;;;26.53;nan;99286.06;5069491;28;20184;-79